Time;durP1;ratioP1;P1;durP2;ratioP2;P2;SDS_P1;SDS_P2;PMS_P1;PMS_P2;Temp;Humidity;BMP_temperature;BMP_pressure;BME280_temperature;BME280_humidity;BME280_pressure;Samples;Min_cycle;Max_cycle;Signal;HPM_P1;HPM_P2
2021/09/28 00:00:51;;;;;;;4.45;1.23;;;13.40;66.10;;;;;;4835020;29;20121;-79
2021/09/28 00:03:17;;;;;;;7.43;1.35;;;13.40;66.10;;;;;;4835797;29;20090;-77
2021/09/28 00:05:44;;;;;;;7.22;1.20;;;13.30;66.00;;;;;;4835671;29;20435;-77
2021/09/28 00:08:10;;;;;;;5.13;1.33;;;13.30;66.00;;;;;;4834558;29;20034;-77
2021/09/28 00:10:36;;;;;;;5.43;1.20;;;13.30;66.00;;;;;;4835692;29;20049;-78
2021/09/28 00:13:06;;;;;;;7.05;1.17;;;13.30;66.00;;;;;;4844915;29;20517;-76
2021/09/28 00:15:32;;;;;;;3.88;1.10;;;13.30;66.00;;;;;;4852587;29;20446;-77
2021/09/28 00:17:58;;;;;;;5.78;1.67;;;13.30;66.00;;;;;;4851980;29;20090;-77
2021/09/28 00:20:24;;;;;;;4.97;1.20;;;13.20;65.90;;;;;;4834733;29;20117;-77
2021/09/28 00:22:53;;;;;;;6.30;2.45;;;13.20;65.90;;;;;;4836582;29;20403;-80
2021/09/28 00:25:21;;;;;;;4.53;1.40;;;13.20;66.00;;;;;;4854140;29;20144;-78
2021/09/28 00:27:48;;;;;;;2.47;0.77;;;13.20;66.00;;;;;;4853799;29;20131;-76
2021/09/28 00:30:14;;;;;;;3.75;1.00;;;13.10;66.40;;;;;;4853731;29;20052;-76
2021/09/28 00:32:41;;;;;;;3.92;1.13;;;13.10;65.90;;;;;;4857484;29;20116;-77
2021/09/28 00:35:07;;;;;;;3.67;0.82;;;13.10;65.90;;;;;;4856293;29;20047;-78
2021/09/28 00:37:33;;;;;;;3.63;1.10;;;13.10;66.00;;;;;;4856793;29;20038;-76
2021/09/28 00:39:59;;;;;;;3.90;1.13;;;13.00;65.80;;;;;;4870812;29;20041;-76
2021/09/28 00:42:25;;;;;;;4.90;1.10;;;13.00;65.80;;;;;;4857248;29;20034;-78
2021/09/28 00:44:51;;;;;;;2.67;0.82;;;13.00;65.90;;;;;;4855967;29;20055;-78
2021/09/28 00:47:17;;;;;;;4.85;1.83;;;13.00;66.00;;;;;;4856949;29;20494;-78
2021/09/28 00:49:46;;;;;;;3.65;1.35;;;12.90;65.80;;;;;;4856977;29;20069;-79
2021/09/28 00:52:15;;;;;;;3.92;1.10;;;12.90;65.90;;;;;;4856731;29;20049;-79
2021/09/28 00:54:44;;;;;;;1.98;0.70;;;12.90;65.90;;;;;;4841999;29;20454;-78
2021/09/28 00:57:10;;;;;;;5.10;1.13;;;12.90;66.00;;;;;;4838988;29;20125;-86
2021/09/28 00:59:38;;;;;;;5.30;1.60;;;12.90;66.10;;;;;;4838407;29;20037;-78
2021/09/28 01:02:08;;;;;;;4.65;1.02;;;12.90;66.10;;;;;;4838665;29;20127;-78
2021/09/28 01:04:34;;;;;;;3.33;0.95;;;12.80;66.00;;;;;;4853229;29;20041;-79
2021/09/28 01:07:03;;;;;;;4.85;1.02;;;12.80;66.00;;;;;;4856013;29;20060;-78
2021/09/28 01:09:30;;;;;;;5.50;1.20;;;12.80;66.00;;;;;;4843893;29;20038;-80
2021/09/28 01:11:56;;;;;;;4.47;1.52;;;12.80;66.10;;;;;;4839547;29;20045;-78
2021/09/28 01:14:22;;;;;;;3.78;1.30;;;12.80;66.10;;;;;;4842616;29;20056;-78
2021/09/28 01:16:48;;;;;;;3.22;1.00;;;12.80;66.10;;;;;;4838307;29;20191;-78
2021/09/28 01:19:14;;;;;;;6.22;1.02;;;12.70;66.00;;;;;;4837850;29;20617;-78
2021/09/28 01:21:40;;;;;;;6.72;1.02;;;12.80;66.20;;;;;;4838125;29;20052;-79
2021/09/28 01:24:07;;;;;;;3.30;0.82;;;12.70;66.10;;;;;;4849538;29;20045;-78
2021/09/28 01:26:34;;;;;;;4.28;1.15;;;12.70;66.20;;;;;;4856737;29;20128;-79
2021/09/28 01:29:01;;;;;;;5.13;1.27;;;12.70;66.20;;;;;;4856243;29;20068;-79
2021/09/28 01:31:27;;;;;;;5.03;1.33;;;12.70;66.20;;;;;;4856529;29;20473;-78
2021/09/28 01:33:53;;;;;;;3.78;0.90;;;12.70;66.20;;;;;;4856887;29;20033;-78
2021/09/28 01:36:20;;;;;;;2.95;0.95;;;12.70;66.30;;;;;;4858087;29;20033;-83
2021/09/28 01:38:46;;;;;;;4.70;1.05;;;12.70;66.30;;;;;;4857337;29;20367;-79
2021/09/28 01:41:13;;;;;;;4.80;1.30;;;12.70;66.30;;;;;;4857547;29;20112;-78
2021/09/28 01:43:39;;;;;;;6.32;1.30;;;12.70;66.30;;;;;;4852923;29;20038;-81
2021/09/28 01:46:05;;;;;;;5.97;1.33;;;12.70;66.90;;;;;;4848203;29;20093;-80
2021/09/28 01:48:42;;;;;;;3.58;1.52;;;12.70;66.40;;;;;;4860577;29;20045;-78
2021/09/28 01:51:08;;;;;;;4.22;1.17;;;12.60;66.30;;;;;;4859909;29;20045;-77
2021/09/28 01:53:35;;;;;;;4.47;1.38;;;12.60;66.20;;;;;;4860784;29;20298;-78
2021/09/28 01:56:01;;;;;;;7.32;1.85;;;12.60;66.30;;;;;;4859746;29;20099;-79
2021/09/28 01:58:27;;;;;;;5.15;1.20;;;12.60;66.30;;;;;;4859183;29;20041;-82
2021/09/28 02:00:53;;;;;;;5.07;2.13;;;12.60;66.30;;;;;;4860844;29;20444;-78
2021/09/28 02:03:19;;;;;;;4.43;1.60;;;12.70;66.60;;;;;;4859418;29;20040;-78
2021/09/28 02:05:46;;;;;;;4.53;1.40;;;12.70;66.60;;;;;;4860457;29;20419;-78
2021/09/28 02:08:12;;;;;;;5.95;1.42;;;12.60;66.40;;;;;;4860409;29;20025;-77
2021/09/28 02:10:38;;;;;;;4.82;0.93;;;12.70;66.70;;;;;;4860165;29;20129;-80
2021/09/28 02:13:05;;;;;;;4.18;1.52;;;12.60;66.60;;;;;;4860594;29;20038;-80
2021/09/28 02:15:31;;;;;;;5.25;1.15;;;12.60;66.60;;;;;;4859201;29;20044;-79
2021/09/28 02:17:58;;;;;;;7.80;1.65;;;12.60;66.50;;;;;;4860130;29;20149;-79
2021/09/28 02:20:23;;;;;;;6.80;2.13;;;12.60;66.60;;;;;;4859696;29;20036;-83
2021/09/28 02:22:49;;;;;;;4.10;0.98;;;12.60;66.60;;;;;;4860043;29;20545;-82
2021/09/28 02:25:18;;;;;;;4.85;1.33;;;12.70;66.70;;;;;;4859169;29;20032;-79
2021/09/28 02:27:44;;;;;;;4.40;1.13;;;12.70;66.70;;;;;;4858868;29;20536;-80
2021/09/28 02:30:11;;;;;;;3.53;1.27;;;12.70;66.80;;;;;;4860261;29;20101;-78
2021/09/28 02:32:37;;;;;;;5.95;1.60;;;12.70;66.80;;;;;;4860019;29;20502;-79
2021/09/28 02:35:04;;;;;;;3.72;1.40;;;12.70;66.80;;;;;;4860422;29;20053;-80
2021/09/28 02:37:30;;;;;;;4.00;1.52;;;12.70;66.80;;;;;;4858692;29;20037;-78
2021/09/28 02:39:57;;;;;;;5.50;1.85;;;12.70;66.80;;;;;;4860271;29;20133;-80
2021/09/28 02:42:23;;;;;;;4.35;1.27;;;12.70;66.90;;;;;;4858665;29;20037;-79
2021/09/28 02:44:52;;;;;;;7.68;2.13;;;12.70;66.90;;;;;;4859946;29;20485;-79
2021/09/28 02:47:18;;;;;;;5.78;2.20;;;12.70;66.90;;;;;;4859892;29;20049;-81
2021/09/28 02:49:44;;;;;;;7.20;1.33;;;12.70;67.00;;;;;;4859173;29;20549;-78
2021/09/28 02:52:11;;;;;;;6.72;1.67;;;12.70;66.90;;;;;;4860355;29;20144;-78
2021/09/28 02:54:37;;;;;;;4.47;1.00;;;12.70;67.00;;;;;;4859246;29;20478;-77
2021/09/28 02:57:03;;;;;;;5.97;1.08;;;12.70;67.00;;;;;;4859381;29;20033;-78
2021/09/28 02:59:29;;;;;;;7.80;2.35;;;12.70;67.00;;;;;;4858902;29;20112;-81
2021/09/28 03:01:55;;;;;;;6.20;1.30;;;12.80;67.20;;;;;;4859637;29;20058;-80
2021/09/28 03:04:21;;;;;;;4.22;1.20;;;12.80;67.20;;;;;;4858305;29;20059;-80
2021/09/28 03:06:46;;;;;;;3.67;1.75;;;12.80;67.20;;;;;;4859705;29;20029;-79
2021/09/28 03:09:12;;;;;;;6.13;1.23;;;12.80;67.20;;;;;;4859307;29;20116;-79
2021/09/28 03:11:38;;;;;;;5.97;1.02;;;12.80;67.20;;;;;;4859218;29;20041;-78
2021/09/28 03:14:05;;;;;;;5.38;1.42;;;12.80;67.20;;;;;;4859628;29;20062;-79
2021/09/28 03:16:30;;;;;;;4.68;1.02;;;12.80;67.20;;;;;;4859370;29;20457;-80
2021/09/28 03:18:56;;;;;;;4.50;1.00;;;12.80;67.30;;;;;;4859098;29;20061;-81
2021/09/28 03:21:22;;;;;;;3.85;0.88;;;12.90;67.40;;;;;;4859560;29;20029;-79
2021/09/28 03:23:48;;;;;;;5.75;1.38;;;12.90;67.40;;;;;;4859485;29;20083;-78
2021/09/28 03:26:14;;;;;;;5.97;1.50;;;12.90;67.40;;;;;;4859360;29;20083;-78
2021/09/28 03:28:40;;;;;;;4.03;1.23;;;12.90;67.50;;;;;;4858346;29;20045;-78
2021/09/28 03:31:06;;;;;;;3.90;0.82;;;12.90;67.50;;;;;;4858920;29;20406;-77
2021/09/28 03:33:32;;;;;;;3.72;1.13;;;12.90;67.50;;;;;;4860761;29;20025;-84
2021/09/28 03:35:58;;;;;;;5.43;1.02;;;12.90;67.50;;;;;;4864295;29;20482;-78
2021/09/28 03:38:24;;;;;;;3.85;1.00;;;12.90;67.50;;;;;;4864151;29;20039;-77
2021/09/28 03:40:50;;;;;;;6.53;1.17;;;12.90;67.50;;;;;;4864082;29;20033;-78
2021/09/28 03:43:16;;;;;;;3.00;1.05;;;12.90;67.50;;;;;;4860049;29;20038;-79
2021/09/28 03:45:42;;;;;;;5.15;1.30;;;12.90;67.50;;;;;;4860304;29;20034;-78
2021/09/28 03:48:08;;;;;;;8.52;2.33;;;12.90;67.50;;;;;;4846036;29;20102;-77
2021/09/28 03:50:34;;;;;;;6.53;1.75;;;13.00;67.60;;;;;;4845329;29;20046;-78
2021/09/28 03:53:01;;;;;;;2.97;1.38;;;13.00;67.60;;;;;;4845680;29;20094;-78
2021/09/28 03:55:26;;;;;;;9.43;1.30;;;13.00;67.70;;;;;;4845777;29;20042;-78
2021/09/28 03:57:53;;;;;;;4.60;1.00;;;13.00;67.70;;;;;;4846493;29;20167;-78
2021/09/28 04:00:21;;;;;;;4.55;1.30;;;13.00;67.70;;;;;;4860295;29;20033;-80
2021/09/28 04:02:48;;;;;;;3.30;0.82;;;13.00;67.70;;;;;;4845301;29;20034;-78
2021/09/28 04:05:14;;;;;;;4.70;0.90;;;13.00;67.70;;;;;;4845864;29;20504;-77
2021/09/28 04:07:41;;;;;;;6.53;1.20;;;12.90;67.50;;;;;;4846404;29;20041;-80
2021/09/28 04:10:09;;;;;;;3.78;1.10;;;12.90;67.50;;;;;;4846223;29;20057;-80
2021/09/28 04:12:36;;;;;;;3.45;1.88;;;12.90;67.50;;;;;;4851876;29;20044;-80
2021/09/28 04:15:03;;;;;;;5.18;1.17;;;12.90;67.50;;;;;;4865062;29;20029;-78
2021/09/28 04:17:29;;;;;;;4.65;1.00;;;12.90;67.60;;;;;;4865270;29;20037;-76
2021/09/28 04:19:55;;;;;;;5.00;1.30;;;12.90;67.60;;;;;;4864640;29;20375;-77
2021/09/28 04:22:22;;;;;;;4.22;0.90;;;12.90;67.60;;;;;;4867647;29;20508;-78
2021/09/28 04:24:50;;;;;;;4.53;1.10;;;12.90;67.60;;;;;;4865965;29;20044;-77
2021/09/28 04:27:17;;;;;;;4.22;1.67;;;12.90;67.70;;;;;;4866411;29;20030;-78
2021/09/28 04:29:44;;;;;;;4.18;1.40;;;12.90;67.70;;;;;;4867004;29;20040;-79
2021/09/28 04:32:10;;;;;;;3.60;0.88;;;12.90;67.70;;;;;;4867441;29;20051;-77
2021/09/28 04:34:37;;;;;;;5.55;1.70;;;12.90;67.80;;;;;;4867792;29;20037;-80
2021/09/28 04:37:04;;;;;;;4.47;1.35;;;13.00;68.00;;;;;;4867570;29;20036;-78
2021/09/28 04:39:30;;;;;;;7.07;1.15;;;13.00;68.00;;;;;;4868240;29;20373;-78
2021/09/28 04:41:56;;;;;;;1.88;0.90;;;12.90;67.80;;;;;;4867625;29;20030;-78
2021/09/28 04:44:22;;;;;;;4.80;1.30;;;13.00;68.00;;;;;;4867114;29;20033;-77
2021/09/28 04:46:48;;;;;;;4.35;1.13;;;13.00;68.00;;;;;;4869104;29;20513;-81
2021/09/28 04:49:14;;;;;;;4.00;1.33;;;13.00;68.10;;;;;;4853373;29;20034;-79
2021/09/28 04:51:40;;;;;;;3.53;1.13;;;13.00;68.10;;;;;;4851123;29;20461;-78
2021/09/28 04:54:07;;;;;;;4.03;1.20;;;13.00;68.10;;;;;;4853043;29;20038;-81
2021/09/28 04:56:34;;;;;;;4.25;1.70;;;13.00;68.10;;;;;;4853456;29;20029;-78
2021/09/28 04:59:00;;;;;;;6.35;1.00;;;13.00;68.10;;;;;;4868235;29;20026;-80
2021/09/28 05:01:26;;;;;;;5.10;1.17;;;13.00;68.10;;;;;;4855845;29;20105;-81
2021/09/28 05:03:52;;;;;;;2.80;0.80;;;13.00;68.10;;;;;;4870907;29;20037;-79
2021/09/28 05:06:18;;;;;;;4.05;0.95;;;13.00;68.10;;;;;;4868764;29;20057;-82
2021/09/28 05:08:44;;;;;;;3.20;1.27;;;13.00;68.70;;;;;;4858512;29;20030;-80
2021/09/28 05:11:11;;;;;;;2.45;1.60;;;13.10;68.30;;;;;;4850092;29;20053;-81
2021/09/28 05:13:37;;;;;;;2.70;0.98;;;13.00;68.20;;;;;;4859933;29;20505;-79
2021/09/28 05:16:04;;;;;;;5.95;1.52;;;13.10;68.40;;;;;;4862168;29;20128;-78
2021/09/28 05:18:30;;;;;;;4.95;1.67;;;13.00;68.20;;;;;;4862153;29;20485;-80
2021/09/28 05:20:55;;;;;;;4.63;1.20;;;13.00;68.20;;;;;;4861352;29;20309;-78
2021/09/28 05:23:21;;;;;;;2.83;0.90;;;13.10;68.40;;;;;;4859154;29;20045;-83
2021/09/28 05:25:47;;;;;;;4.18;0.80;;;13.10;68.40;;;;;;4858626;29;20060;-78
2021/09/28 05:28:13;;;;;;;3.95;0.98;;;13.10;68.40;;;;;;4858090;29;20054;-80
2021/09/28 05:30:43;;;;;;;5.50;1.35;;;13.10;68.40;;;;;;4851079;29;20053;-78
2021/09/28 05:33:11;;;;;;;3.40;0.93;;;13.20;68.60;;;;;;4849574;29;20124;-80
2021/09/28 05:35:37;;;;;;;2.67;0.80;;;13.20;68.60;;;;;;4847313;29;20104;-78
2021/09/28 05:38:04;;;;;;;3.88;1.00;;;13.20;68.60;;;;;;4852239;29;20175;-82
2021/09/28 05:40:30;;;;;;;3.17;1.20;;;13.20;68.60;;;;;;4851624;29;20030;-84
2021/09/28 05:42:56;;;;;;;5.10;1.17;;;13.20;68.60;;;;;;4859492;29;20029;-78
2021/09/28 05:45:22;;;;;;;3.92;1.05;;;13.20;68.60;;;;;;4870802;29;20030;-77
2021/09/28 05:47:48;;;;;;;5.47;0.98;;;13.20;68.60;;;;;;4866965;29;20064;-77
2021/09/28 05:50:15;;;;;;;4.40;1.00;;;13.30;68.70;;;;;;4870047;29;20159;-78
2021/09/28 05:52:44;;;;;;;4.30;1.00;;;13.30;68.70;;;;;;4864979;29;20042;-77
2021/09/28 05:55:10;;;;;;;4.85;1.40;;;13.30;68.70;;;;;;4854526;29;20061;-81
2021/09/28 05:57:36;;;;;;;2.85;1.10;;;13.30;68.80;;;;;;4844062;29;20045;-77
2021/09/28 06:00:03;;;;;;;5.18;1.77;;;13.30;68.80;;;;;;4848099;29;20042;-77
2021/09/28 06:02:29;;;;;;;4.88;1.52;;;13.30;68.80;;;;;;4852379;29;20038;-77
2021/09/28 06:04:55;;;;;;;5.50;1.50;;;13.30;69.00;;;;;;4870088;29;20037;-77
2021/09/28 06:07:22;;;;;;;3.42;1.00;;;13.40;69.30;;;;;;4861584;29;20045;-78
2021/09/28 06:09:48;;;;;;;7.78;2.05;;;13.40;69.40;;;;;;4855360;29;20407;-79
2021/09/28 06:12:15;;;;;;;6.50;1.75;;;13.40;69.40;;;;;;4855944;29;20437;-78
2021/09/28 06:14:42;;;;;;;3.95;1.55;;;13.40;69.40;;;;;;4854698;29;20560;-81
2021/09/28 06:17:09;;;;;;;3.08;0.85;;;13.40;69.40;;;;;;4848261;29;20049;-77
2021/09/28 06:19:36;;;;;;;4.07;1.48;;;13.40;69.40;;;;;;4840858;29;20030;-78
2021/09/28 06:22:04;;;;;;;5.82;1.90;;;13.40;69.50;;;;;;4854802;29;20030;-76
2021/09/28 06:24:32;;;;;;;2.92;0.98;;;13.50;69.90;;;;;;4836780;29;20132;-75
2021/09/28 06:27:00;;;;;;;6.15;1.77;;;13.50;69.90;;;;;;4837555;29;20034;-75
2021/09/28 06:29:26;;;;;;;5.00;2.05;;;13.50;69.90;;;;;;4853993;29;20393;-75
2021/09/28 06:31:52;;;;;;;5.93;1.45;;;13.60;70.20;;;;;;4855959;29;20076;-75
2021/09/28 06:34:18;;;;;;;5.45;1.52;;;13.60;70.30;;;;;;4836927;29;20509;-75
2021/09/28 06:36:44;;;;;;;6.22;1.30;;;13.60;70.40;;;;;;4837100;29;20418;-74
2021/09/28 06:39:10;;;;;;;6.22;1.90;;;13.70;70.70;;;;;;4852528;29;20033;-75
2021/09/28 06:41:36;;;;;;;6.32;1.33;;;13.70;70.80;;;;;;4855147;29;20450;-77
2021/09/28 06:44:05;;;;;;;4.93;0.75;;;13.70;70.70;;;;;;4841132;29;20090;-76
2021/09/28 06:46:31;;;;;;;6.38;1.58;;;13.70;70.70;;;;;;4849355;29;20037;-75
2021/09/28 06:48:57;;;;;;;6.85;1.75;;;13.80;70.80;;;;;;4854388;29;20394;-75
2021/09/28 06:51:23;;;;;;;4.07;1.42;;;13.80;70.80;;;;;;4854901;29;20042;-76
2021/09/28 06:53:49;;;;;;;4.88;0.95;;;13.80;70.70;;;;;;4854591;29;20259;-76
2021/09/28 06:56:20;;;;;;;6.78;1.80;;;13.80;70.70;;;;;;4853907;29;20038;-74
2021/09/28 06:58:48;;;;;;;3.80;0.82;;;13.90;70.90;;;;;;4841392;29;20121;-75
2021/09/28 07:01:14;;;;;;;9.88;1.00;;;13.90;70.90;;;;;;4836529;29;20073;-75
2021/09/28 07:03:48;;;;;;;5.50;0.88;;;13.90;70.90;;;;;;4835265;29;20033;-74
2021/09/28 07:06:14;;;;;;;5.20;1.08;;;13.90;70.90;;;;;;4836494;29;20030;-74
2021/09/28 07:08:40;;;;;;;7.65;1.15;;;14.00;71.00;;;;;;4836507;29;20045;-75
2021/09/28 07:11:06;;;;;;;4.63;1.13;;;14.00;71.10;;;;;;4845600;29;20101;-75
2021/09/28 07:13:32;;;;;;;1.90;0.80;;;14.10;71.40;;;;;;4856856;29;20036;-76
2021/09/28 07:15:58;;;;;;;9.07;1.85;;;14.10;71.30;;;;;;4853365;29;20128;-78
2021/09/28 07:18:24;;;;;;;5.45;1.50;;;14.20;71.50;;;;;;4844469;29;20604;-76
2021/09/28 07:20:50;;;;;;;2.80;0.80;;;14.20;71.40;;;;;;4836298;29;20038;-75
2021/09/28 07:23:16;;;;;;;3.67;1.15;;;14.20;71.40;;;;;;4845242;29;20463;-75
2021/09/28 07:25:43;;;;;;;7.28;2.13;;;14.30;71.50;;;;;;4853936;29;20068;-76
2021/09/28 07:28:08;;;;;;;5.25;1.05;;;14.40;71.60;;;;;;4852843;29;20072;-75
2021/09/28 07:30:35;;;;;;;3.35;1.10;;;14.40;71.50;;;;;;4854331;29;20401;-75
2021/09/28 07:33:02;;;;;;;3.58;0.90;;;14.50;71.60;;;;;;4854180;29;20128;-75
2021/09/28 07:35:29;;;;;;;4.25;0.90;;;14.50;71.60;;;;;;4854316;29;20039;-76
2021/09/28 07:37:55;;;;;;;5.10;1.17;;;14.60;71.70;;;;;;4854227;29;20443;-77
2021/09/28 07:40:21;;;;;;;6.13;1.75;;;14.60;71.50;;;;;;4853491;29;20029;-75
2021/09/28 07:42:47;;;;;;;5.43;0.90;;;14.70;71.60;;;;;;4848449;29;20477;-75
2021/09/28 07:45:14;;;;;;;5.47;1.40;;;14.70;71.50;;;;;;4844579;29;20033;-75
2021/09/28 07:47:41;;;;;;;3.80;0.70;;;14.80;71.60;;;;;;4849925;29;20080;-75
2021/09/28 07:50:08;;;;;;;3.78;0.85;;;14.90;71.60;;;;;;4834012;29;20075;-79
2021/09/28 07:52:34;;;;;;;4.50;1.00;;;15.00;71.70;;;;;;4840434;29;20045;-75
2021/09/28 07:55:00;;;;;;;9.43;1.55;;;15.10;71.70;;;;;;4852658;29;20064;-75
2021/09/28 07:57:26;;;;;;;6.57;1.98;;;15.30;71.80;;;;;;4853976;29;20037;-76
2021/09/28 07:59:54;;;;;;;2.22;1.02;;;15.40;71.70;;;;;;4852404;29;20034;-78
2021/09/28 08:02:23;;;;;;;5.57;1.48;;;15.50;71.70;;;;;;4852247;29;20065;-77
2021/09/28 08:04:49;;;;;;;4.53;1.00;;;15.50;71.40;;;;;;4853581;29;20197;-76
2021/09/28 08:07:17;;;;;;;2.85;1.00;;;15.60;71.50;;;;;;4845264;29;20029;-77
2021/09/28 08:09:43;;;;;;;4.25;1.48;;;15.70;71.40;;;;;;4849412;29;20046;-77
2021/09/28 08:12:10;;;;;;;1.27;0.75;;;15.60;71.70;;;;;;4852639;29;20088;-77
2021/09/28 08:14:37;;;;;;;5.47;2.00;;;15.70;71.30;;;;;;4835987;29;20117;-78
2021/09/28 08:17:03;;;;;;;4.20;1.45;;;15.70;71.30;;;;;;4835588;29;20038;-77
2021/09/28 08:19:29;;;;;;;2.55;0.90;;;15.70;71.20;;;;;;4834901;29;20042;-77
2021/09/28 08:21:55;;;;;;;3.17;0.90;;;15.70;71.20;;;;;;4834475;29;20034;-77
2021/09/28 08:24:21;;;;;;;3.42;1.00;;;15.80;71.40;;;;;;4835689;29;20397;-76
2021/09/28 08:29:32;;;;;;;3.17;1.20;;;15.90;71.30;;;;;;4852217;29;20046;-78
2021/09/28 08:31:57;;;;;;;7.90;1.42;;;16.00;71.30;;;;;;4854145;29;20048;-77
2021/09/28 08:34:23;;;;;;;4.05;1.48;;;16.10;71.40;;;;;;4835407;29;20042;-77
2021/09/28 08:36:49;;;;;;;5.60;1.98;;;16.10;71.30;;;;;;4838145;29;20465;-78
2021/09/28 08:39:16;;;;;;;3.20;1.00;;;16.20;71.40;;;;;;4844938;29;20421;-77
2021/09/28 08:41:45;;;;;;;4.50;1.20;;;16.30;71.40;;;;;;4854579;29;20041;-79
2021/09/28 08:44:12;;;;;;;6.30;1.55;;;16.40;71.40;;;;;;4847871;29;20640;-76
2021/09/28 08:46:38;;;;;;;4.10;1.40;;;16.50;71.40;;;;;;4852693;29;20431;-76
2021/09/28 08:49:05;;;;;;;8.27;1.77;;;16.60;71.30;;;;;;4852657;29;20036;-76
2021/09/28 08:51:32;;;;;;;6.57;0.90;;;16.60;71.20;;;;;;4853735;29;20052;-76
2021/09/28 08:53:59;;;;;;;6.28;1.30;;;16.60;71.10;;;;;;4840795;29;20046;-77
2021/09/28 08:56:27;;;;;;;6.30;1.38;;;16.60;71.00;;;;;;4837354;29;20366;-76
2021/09/28 08:58:58;;;;;;;23.20;2.55;;;16.70;71.10;;;;;;4838438;29;20486;-76
2021/09/28 09:01:25;;;;;;;5.28;1.13;;;16.70;71.10;;;;;;4838643;29;20441;-76
2021/09/28 09:03:51;;;;;;;7.15;1.20;;;16.80;71.20;;;;;;4850791;29;20444;-82
2021/09/28 09:06:18;;;;;;;8.95;1.77;;;16.80;71.10;;;;;;4857164;29;20029;-83
2021/09/28 09:08:48;;;;;;;7.30;2.00;;;16.90;71.20;;;;;;4844715;29;20046;-83
2021/09/28 09:11:16;;;;;;;7.50;1.50;;;17.00;71.40;;;;;;4836602;29;20050;-77
2021/09/28 09:13:51;;;;;;;8.55;2.25;;;17.10;71.60;;;;;;4850861;29;20442;-76
2021/09/28 09:16:18;;;;;;;8.43;2.95;;;17.30;71.90;;;;;;4857409;29;20044;-78
2021/09/28 09:18:48;;;;;;;4.93;1.20;;;17.40;71.80;;;;;;4846151;29;20121;-78
2021/09/28 09:21:14;;;;;;;7.43;1.48;;;17.60;71.80;;;;;;4837802;29;20501;-76
2021/09/28 09:23:43;;;;;;;4.57;1.40;;;17.70;71.70;;;;;;4838290;29;20037;-77
2021/09/28 09:26:15;;;;;;;4.95;1.40;;;17.90;71.90;;;;;;4838260;29;20486;-76
2021/09/28 09:28:46;;;;;;;6.03;2.13;;;17.90;71.60;;;;;;4838183;29;20034;-76
2021/09/28 09:31:21;;;;;;;11.48;2.17;;;18.00;71.60;;;;;;4838343;29;20049;-77
2021/09/28 09:33:49;;;;;;;6.82;2.05;;;18.20;71.70;;;;;;4836433;29;20509;-76
2021/09/28 09:36:17;;;;;;;6.07;1.58;;;18.20;71.50;;;;;;4836177;29;20041;-77
2021/09/28 09:38:46;;;;;;;5.07;1.45;;;18.20;71.30;;;;;;4845719;29;20501;-77
2021/09/28 09:41:12;;;;;;;6.93;2.60;;;18.30;71.30;;;;;;4856425;29;20136;-77
2021/09/28 09:43:38;;;;;;;3.92;1.15;;;18.30;71.20;;;;;;4844204;29;20125;-77
2021/09/28 09:46:14;;;;;;;5.80;1.40;;;18.40;71.20;;;;;;4837338;29;20041;-82
2021/09/28 09:48:42;;;;;;;11.80;2.30;;;18.40;71.00;;;;;;4836980;29;20572;-77
2021/09/28 09:51:14;;;;;;;4.68;1.33;;;18.40;71.00;;;;;;4838274;29;20138;-78
2021/09/28 09:54:00;;;;;;;5.38;0.95;;;18.40;70.80;;;;;;4850287;29;20052;-77
2021/09/28 09:56:52;;;;;;;4.72;1.25;;;18.40;70.70;;;;;;4855086;29;20493;-77
2021/09/28 09:59:23;;;;;;;6.05;1.30;;;18.30;70.50;;;;;;4855961;29;20040;-77
2021/09/28 10:01:50;;;;;;;6.53;1.50;;;18.30;70.60;;;;;;4856220;29;20402;-76
2021/09/28 10:04:19;;;;;;;6.47;1.70;;;18.30;70.60;;;;;;4837230;29;20538;-77
2021/09/28 10:06:45;;;;;;;6.20;1.42;;;18.30;70.60;;;;;;4836015;29;20259;-77
2021/09/28 10:09:27;;;;;;;7.18;1.83;;;18.30;70.50;;;;;;4837337;29;20513;-78
2021/09/28 10:11:56;;;;;;;4.60;1.40;;;18.40;70.60;;;;;;4837663;29;20528;-78
2021/09/28 10:14:41;;;;;;;5.07;1.83;;;18.40;70.40;;;;;;4838295;29;20030;-78
2021/09/28 10:17:22;;;;;;;5.75;2.05;;;18.40;70.30;;;;;;4836223;29;20037;-77
2021/09/28 10:19:56;;;;;;;8.43;2.60;;;18.40;70.20;;;;;;4837511;29;20121;-77
2021/09/28 10:22:38;;;;;;;4.35;1.17;;;18.30;69.90;;;;;;4837171;29;20095;-77
2021/09/28 10:25:20;;;;;;;7.75;1.95;;;18.30;69.80;;;;;;4836239;29;20075;-75
2021/09/28 10:27:51;;;;;;;9.13;1.90;;;18.20;69.60;;;;;;4848080;29;20468;-77
2021/09/28 10:30:41;;;;;;;8.90;2.10;;;18.20;69.70;;;;;;4854036;29;20076;-77
2021/09/28 10:33:31;;;;;;;9.43;1.92;;;18.10;69.50;;;;;;4851595;29;20282;-78
2021/09/28 10:36:11;;;;;;;4.88;1.77;;;18.10;69.60;;;;;;4855364;29;20405;-78
2021/09/28 10:39:06;;;;;;;6.30;1.50;;;18.00;69.50;;;;;;4844866;29;20030;-77
2021/09/28 10:41:42;;;;;;;7.80;2.22;;;18.00;69.60;;;;;;4830344;29;20137;-77
2021/09/28 10:44:29;;;;;;;14.88;2.88;;;18.00;69.70;;;;;;4838134;29;20395;-80
2021/09/28 10:46:56;;;;;;;8.77;1.67;;;18.00;69.80;;;;;;4837073;29;20506;-80
2021/09/28 10:49:30;;;;;;;7.78;1.63;;;18.00;69.80;;;;;;4836422;29;20497;-80
2021/09/28 10:52:21;;;;;;;10.10;2.30;;;18.10;70.10;;;;;;4837116;29;20090;-79
2021/09/28 10:55:09;;;;;;;11.38;2.95;;;18.20;70.20;;;;;;4836865;29;20038;-79
2021/09/28 10:57:54;;;;;;;4.30;1.55;;;18.30;70.40;;;;;;4839761;29;20102;-79
2021/09/28 11:00:21;;;;;;;7.68;1.48;;;18.40;70.50;;;;;;4843090;29;20139;-77
2021/09/28 11:02:51;;;;;;;6.47;2.03;;;18.50;70.60;;;;;;4850876;29;20578;-78
2021/09/28 11:05:30;;;;;;;6.88;1.73;;;18.60;70.70;;;;;;4853304;29;20183;-77
2021/09/28 11:08:06;;;;;;;6.47;2.00;;;18.70;70.70;;;;;;4847726;29;20041;-77
2021/09/28 11:10:33;;;;;;;7.05;2.13;;;18.80;70.70;;;;;;4847892;29;20450;-77
2021/09/28 11:13:11;;;;;;;11.00;2.10;;;18.90;70.70;;;;;;4851923;29;20084;-79
2021/09/28 11:15:38;;;;;;;5.40;2.22;;;18.90;70.70;;;;;;4855251;29;20033;-79
2021/09/28 11:18:12;;;;;;;4.47;1.80;;;18.90;70.60;;;;;;4856014;29;20064;-78
2021/09/28 11:20:40;;;;;;;8.10;1.70;;;18.90;70.60;;;;;;4855461;29;20141;-77
2021/09/28 11:23:09;;;;;;;9.02;1.77;;;19.00;70.80;;;;;;4854420;29;20029;-79
2021/09/28 11:25:36;;;;;;;6.65;1.77;;;19.00;70.80;;;;;;4854540;29;20068;-78
2021/09/28 11:28:12;;;;;;;4.97;1.58;;;19.10;70.80;;;;;;4849835;29;20449;-82
2021/09/28 11:30:41;;;;;;;5.22;1.40;;;19.30;71.10;;;;;;4836547;29;20094;-85
2021/09/28 11:33:09;;;;;;;11.90;2.95;;;19.30;70.90;;;;;;4844481;29;20404;-80
2021/09/28 11:35:36;;;;;;;7.25;1.95;;;19.50;71.00;;;;;;4854902;29;20029;-84
2021/09/28 11:38:05;;;;;;;5.82;2.28;;;19.50;71.40;;;;;;4848068;29;20203;-76
2021/09/28 11:40:38;;;;;;;7.57;2.10;;;19.60;71.30;;;;;;4846622;29;20033;-76
2021/09/28 11:43:24;;;;;;;6.20;1.33;;;19.70;70.80;;;;;;4847626;29;20062;-77
2021/09/28 11:46:08;;;;;;;8.18;1.63;;;19.80;70.80;;;;;;4841566;29;20068;-80
2021/09/28 11:48:39;;;;;;;4.45;1.23;;;19.70;70.60;;;;;;4854027;29;20058;-77
2021/09/28 11:51:07;;;;;;;4.32;1.83;;;19.80;70.80;;;;;;4855037;29;20041;-78
2021/09/28 11:53:40;;;;;;;6.45;2.00;;;19.90;70.80;;;;;;4854480;29;20493;-76
2021/09/28 11:56:07;;;;;;;7.05;1.85;;;19.90;70.60;;;;;;4854719;29;20347;-79
2021/09/28 11:58:35;;;;;;;7.35;2.10;;;20.00;70.60;;;;;;4854237;29;20033;-78
2021/09/28 12:01:01;;;;;;;5.80;2.08;;;20.00;70.50;;;;;;4854785;29;20069;-77
2021/09/28 12:03:27;;;;;;;6.07;2.58;;;19.90;70.30;;;;;;4854559;29;20092;-77
2021/09/28 12:06:03;;;;;;;4.82;1.50;;;19.90;70.40;;;;;;4856424;29;20147;-76
2021/09/28 12:08:33;;;;;;;5.03;1.92;;;19.80;70.30;;;;;;4857580;29;20125;-77
2021/09/28 12:11:03;;;;;;;5.10;1.95;;;19.70;70.20;;;;;;4854353;29;20081;-76
2021/09/28 12:13:30;;;;;;;4.75;1.48;;;19.70;70.30;;;;;;4844413;29;20090;-75
2021/09/28 12:16:10;;;;;;;4.28;1.20;;;19.50;70.00;;;;;;4836243;29;20045;-76
2021/09/28 12:18:37;;;;;;;4.43;1.60;;;19.50;70.20;;;;;;4836721;29;20038;-83
2021/09/28 12:21:14;;;;;;;6.57;1.48;;;19.40;70.20;;;;;;4838490;29;20038;-75
2021/09/28 12:23:40;;;;;;;6.28;1.75;;;19.40;70.30;;;;;;4848130;29;20033;-80
2021/09/28 12:26:22;;;;;;;4.38;1.92;;;19.30;70.30;;;;;;4855900;29;20124;-77
2021/09/28 12:28:48;;;;;;;5.13;1.80;;;19.30;70.40;;;;;;4858015;29;20030;-76
2021/09/28 12:31:14;;;;;;;3.55;1.38;;;19.30;70.40;;;;;;4859439;29;20046;-76
2021/09/28 12:33:41;;;;;;;4.57;1.45;;;19.30;70.50;;;;;;4858720;29;20049;-77
2021/09/28 12:36:08;;;;;;;4.75;1.55;;;19.30;70.50;;;;;;4857630;29;20470;-77
2021/09/28 12:38:34;;;;;;;4.45;1.60;;;19.30;70.50;;;;;;4859039;29;20033;-76
2021/09/28 12:41:08;;;;;;;4.18;1.23;;;19.20;70.30;;;;;;4860155;29;20061;-76
2021/09/28 12:43:35;;;;;;;5.07;1.13;;;19.20;70.30;;;;;;4846882;29;20042;-77
2021/09/28 12:46:04;;;;;;;3.83;1.33;;;19.20;70.40;;;;;;4839817;29;20499;-76
2021/09/28 12:48:39;;;;;;;3.55;1.45;;;19.20;70.50;;;;;;4839148;29;20044;-76
2021/09/28 12:51:11;;;;;;;4.93;1.30;;;19.10;70.40;;;;;;4837779;29;20045;-77
2021/09/28 12:53:38;;;;;;;4.30;1.50;;;19.10;70.40;;;;;;4838817;29;20483;-76